createdAt,value
2023-08-11T00:01:18.972Z,2.25
2023-08-11T00:03:46.184Z,2.53
2023-08-11T00:06:13.627Z,3.45
2023-08-11T00:08:41.161Z,2.78
2023-08-11T00:11:07.928Z,2.55
2023-08-11T00:13:35.216Z,2.70
2023-08-11T00:16:06.079Z,3.85
2023-08-11T00:18:33.012Z,2.55
2023-08-11T00:21:00.105Z,4.47
2023-08-11T00:23:26.983Z,2.58
2023-08-11T00:25:53.740Z,3.10
2023-08-11T00:28:20.634Z,2.38
2023-08-11T00:30:47.455Z,4.53
2023-08-11T00:33:14.371Z,3.08
2023-08-11T00:35:43.330Z,3.78
2023-08-11T00:38:11.340Z,2.58
2023-08-11T00:40:38.444Z,2.60
2023-08-11T00:43:05.390Z,3.40
2023-08-11T00:45:32.407Z,3.05
2023-08-11T00:47:59.644Z,2.47
2023-08-11T00:50:27.494Z,2.05
2023-08-11T00:52:55.111Z,2.10
2023-08-11T00:55:23.165Z,2.38
2023-08-11T00:57:50.345Z,3.38
2023-08-11T01:00:17.610Z,2.65
2023-08-11T01:02:45.879Z,2.17
2023-08-11T01:05:15.940Z,3.25
2023-08-11T01:07:48.471Z,4.03
2023-08-11T01:10:31.089Z,3.25
2023-08-11T01:13:12.999Z,2.13
2023-08-11T01:15:42.243Z,3.00
2023-08-11T01:18:11.385Z,2.40
2023-08-11T01:20:39.272Z,4.15
2023-08-11T01:23:08.140Z,2.33
2023-08-11T01:25:35.461Z,3.38
2023-08-11T01:28:02.324Z,2.78
2023-08-11T01:30:31.328Z,2.88
2023-08-11T01:32:58.478Z,3.13
2023-08-11T01:35:38.506Z,2.92
2023-08-11T01:38:10.014Z,2.38
2023-08-11T01:40:37.841Z,4.22
2023-08-11T01:43:06.979Z,3.53
2023-08-11T01:45:34.468Z,2.95
2023-08-11T01:48:03.091Z,2.58
2023-08-11T01:50:31.774Z,4.03
2023-08-11T01:52:58.841Z,2.83
2023-08-11T01:55:26.712Z,4.40
2023-08-11T01:57:59.405Z,7.07
2023-08-11T02:00:28.492Z,4.60
2023-08-11T02:02:56.198Z,3.05
2023-08-11T02:05:26.139Z,3.22
2023-08-11T02:07:54.356Z,3.88
2023-08-11T02:10:21.466Z,4.95
2023-08-11T02:12:50.093Z,3.22
2023-08-11T02:15:17.232Z,2.92
2023-08-11T02:17:44.210Z,5.18
2023-08-11T02:20:20.765Z,8.55
2023-08-11T02:22:47.785Z,8.00
2023-08-11T02:25:16.138Z,4.72
2023-08-11T02:27:43.456Z,3.20
2023-08-11T02:30:12.808Z,4.50
2023-08-11T02:32:40.640Z,4.00
2023-08-11T02:35:08.202Z,3.55
2023-08-11T02:37:35.220Z,3.60
2023-08-11T02:40:02.183Z,5.75
2023-08-11T02:42:29.169Z,3.30
2023-08-11T02:44:56.003Z,4.00
2023-08-11T02:47:22.878Z,3.75
2023-08-11T02:49:49.724Z,5.00
2023-08-11T02:52:16.725Z,4.63
2023-08-11T02:54:43.612Z,4.97
2023-08-11T02:57:10.397Z,3.13
2023-08-11T02:59:37.256Z,4.75
2023-08-11T03:02:04.147Z,4.03
2023-08-11T03:04:31.066Z,4.43
2023-08-11T03:06:57.964Z,4.45
2023-08-11T03:09:24.782Z,4.38
2023-08-11T03:11:51.693Z,2.90
2023-08-11T03:14:19.136Z,4.72
2023-08-11T03:16:45.977Z,5.35
2023-08-11T03:19:13.100Z,5.90
2023-08-11T03:21:40.606Z,5.90
2023-08-11T03:24:07.794Z,4.57
2023-08-11T03:26:35.659Z,4.43
2023-08-11T03:29:04.924Z,3.95
2023-08-11T03:31:34.009Z,4.28
2023-08-11T03:34:01.055Z,4.65
2023-08-11T03:36:28.112Z,7.03
2023-08-11T03:38:55.504Z,4.25
2023-08-11T03:41:22.513Z,5.97
2023-08-11T03:43:50.187Z,7.47
2023-08-11T03:46:17.619Z,4.97
2023-08-11T03:48:44.632Z,5.07
2023-08-11T03:51:12.429Z,7.32
2023-08-11T03:53:40.334Z,6.68
2023-08-11T03:56:08.787Z,5.28
2023-08-11T03:58:41.100Z,5.93
2023-08-11T04:01:09.208Z,4.68
2023-08-11T04:03:36.347Z,3.63
2023-08-11T04:06:03.365Z,3.85
2023-08-11T04:08:30.219Z,4.85
2023-08-11T04:10:57.154Z,4.00
2023-08-11T04:13:24.062Z,4.15
2023-08-11T04:15:52.902Z,3.80
2023-08-11T04:18:20.931Z,4.75
2023-08-11T04:20:48.710Z,5.05
2023-08-11T04:23:15.717Z,4.93
2023-08-11T04:25:44.595Z,6.22
2023-08-11T04:28:11.882Z,5.65
2023-08-11T04:30:40.015Z,5.35
2023-08-11T04:33:08.357Z,6.68
2023-08-11T04:35:36.670Z,5.75
2023-08-11T04:38:05.454Z,7.05
2023-08-11T04:40:35.275Z,5.68
2023-08-11T04:43:02.204Z,6.07
2023-08-11T04:45:35.664Z,4.72
2023-08-11T04:48:03.242Z,6.20
2023-08-11T04:50:33.517Z,7.30
2023-08-11T04:53:00.544Z,5.82
2023-08-11T04:55:28.120Z,6.20
2023-08-11T04:57:55.739Z,5.97
2023-08-11T05:00:24.050Z,8.38
2023-08-11T05:02:52.758Z,7.70
2023-08-11T05:05:20.927Z,8.98
2023-08-11T05:07:47.714Z,7.38
2023-08-11T05:10:15.906Z,6.50
2023-08-11T05:12:42.771Z,10.77
2023-08-11T05:15:10.494Z,8.23
2023-08-11T05:17:37.426Z,6.70
2023-08-11T05:20:08.649Z,6.35
2023-08-11T05:22:37.076Z,6.22
2023-08-11T05:25:05.615Z,5.03
2023-08-11T05:27:32.828Z,7.40
2023-08-11T05:30:00.527Z,7.78
2023-08-11T05:32:28.083Z,7.20
2023-08-11T05:34:57.474Z,5.45
2023-08-11T05:37:26.165Z,6.40
2023-08-11T05:39:54.846Z,4.35
2023-08-11T05:42:22.383Z,4.40
2023-08-11T05:44:49.196Z,5.75
2023-08-11T05:47:16.713Z,7.38
2023-08-11T05:49:43.628Z,5.32
2023-08-11T05:52:11.163Z,8.35
2023-08-11T05:54:38.258Z,5.93
2023-08-11T05:57:05.296Z,7.43
2023-08-11T05:59:32.781Z,5.10
2023-08-11T06:02:00.112Z,5.68
2023-08-11T06:04:28.162Z,4.60
2023-08-11T06:06:54.983Z,5.82
2023-08-11T06:09:23.268Z,6.85
2023-08-11T06:11:50.078Z,5.80
2023-08-11T06:14:16.969Z,6.53
2023-08-11T06:16:43.807Z,4.63
2023-08-11T06:19:10.736Z,4.88
2023-08-11T06:21:38.713Z,7.68
2023-08-11T06:24:05.840Z,6.40
2023-08-11T06:26:32.984Z,5.93
2023-08-11T06:28:59.816Z,3.58
2023-08-11T06:31:26.729Z,3.80
2023-08-11T06:33:53.583Z,6.47
2023-08-11T06:36:20.894Z,4.22
2023-08-11T06:38:47.902Z,4.68
2023-08-11T06:41:14.768Z,4.00
2023-08-11T06:43:42.800Z,4.25
2023-08-11T06:46:09.717Z,5.65
2023-08-11T06:48:36.663Z,3.50
2023-08-11T06:51:03.627Z,4.55
2023-08-11T06:53:30.444Z,3.90
2023-08-11T06:55:57.397Z,4.18
2023-08-11T06:58:26.223Z,4.30
2023-08-11T07:00:53.788Z,4.95
2023-08-11T07:03:20.874Z,3.42
2023-08-11T07:05:47.909Z,4.20
2023-08-11T07:08:14.663Z,6.20
2023-08-11T07:10:41.454Z,6.63
2023-08-11T07:13:08.334Z,5.20
2023-08-11T07:15:37.476Z,5.90
2023-08-11T07:18:05.905Z,4.15
2023-08-11T07:20:32.704Z,3.85
2023-08-11T07:22:59.546Z,4.45
2023-08-11T07:25:26.344Z,3.60
2023-08-11T07:27:53.117Z,3.20
2023-08-11T07:30:20.149Z,2.70
2023-08-11T07:32:47.214Z,3.80
2023-08-11T07:35:14.178Z,2.90
2023-08-11T07:37:41.121Z,3.58
2023-08-11T07:40:09.105Z,2.78
2023-08-11T07:42:36.169Z,3.42
2023-08-11T07:45:02.948Z,3.40
2023-08-11T07:47:29.754Z,3.03
2023-08-11T07:49:58.226Z,2.80
2023-08-11T07:52:25.382Z,3.25
2023-08-11T07:54:52.416Z,4.20
2023-08-11T07:57:19.497Z,2.22
2023-08-11T07:59:46.349Z,3.72
2023-08-11T08:02:14.545Z,3.53
2023-08-11T08:04:41.488Z,3.92
2023-08-11T08:07:08.528Z,2.50
2023-08-11T08:09:35.991Z,2.08
2023-08-11T08:12:06.033Z,5.05
2023-08-11T08:14:32.985Z,1.80
2023-08-11T08:17:02.370Z,1.98
2023-08-11T08:19:29.376Z,3.22
2023-08-11T08:21:56.162Z,3.67
2023-08-11T08:24:23.011Z,2.47
2023-08-11T08:26:49.836Z,6.75
2023-08-11T08:29:16.647Z,2.80
2023-08-11T08:31:43.512Z,4.30
2023-08-11T08:34:10.586Z,3.55
2023-08-11T08:36:37.662Z,3.90
2023-08-11T08:39:06.119Z,3.58
2023-08-11T08:41:39.151Z,1.73
2023-08-11T08:46:34.644Z,5.28
2023-08-11T08:49:24.628Z,6.78
2023-08-11T08:51:51.462Z,6.90
2023-08-11T08:54:18.444Z,4.40
2023-08-11T08:56:45.473Z,5.95
2023-08-11T08:59:12.517Z,6.45
2023-08-11T09:01:40.120Z,4.35
2023-08-11T09:04:09.651Z,4.63
2023-08-11T09:06:36.894Z,4.20
2023-08-11T09:09:06.026Z,4.63
2023-08-11T09:11:32.820Z,2.55
2023-08-11T09:14:07.789Z,5.90
2023-08-11T09:16:36.092Z,5.57
2023-08-11T09:19:05.299Z,3.33
2023-08-11T09:21:32.366Z,4.07
2023-08-11T09:23:59.264Z,3.80
2023-08-11T09:26:26.226Z,2.85
2023-08-11T09:28:53.927Z,2.75
2023-08-11T09:31:25.475Z,2.13
2023-08-11T09:33:53.632Z,2.63
2023-08-11T09:36:21.336Z,2.30
2023-08-11T09:38:49.499Z,3.53
2023-08-11T09:41:17.712Z,3.50
2023-08-11T09:43:51.294Z,5.38
2023-08-11T09:46:26.022Z,4.20
2023-08-11T09:48:54.939Z,3.08
2023-08-11T09:51:22.685Z,2.83
2023-08-11T09:53:50.531Z,6.45
2023-08-11T09:56:19.384Z,2.47
2023-08-11T09:58:48.267Z,2.25
2023-08-11T10:01:20.957Z,2.53
2023-08-11T10:03:49.556Z,3.58
2023-08-11T10:06:22.682Z,2.42
2023-08-11T10:08:51.774Z,2.85
2023-08-11T10:11:21.212Z,2.03
2023-08-11T10:13:48.720Z,2.95
2023-08-11T10:16:15.991Z,2.47
2023-08-11T10:18:44.253Z,3.55
2023-08-11T10:21:11.618Z,2.78
2023-08-11T10:23:39.024Z,2.17
2023-08-11T10:26:06.081Z,2.25
2023-08-11T10:28:33.576Z,3.67
2023-08-11T10:31:01.347Z,2.28
2023-08-11T10:33:32.251Z,5.43
2023-08-11T10:36:01.121Z,1.50
2023-08-11T10:38:33.680Z,1.55
2023-08-11T10:41:01.662Z,2.10
2023-08-11T10:43:33.823Z,3.95
2023-08-11T10:46:20.354Z,4.75
2023-08-11T10:48:47.248Z,2.63
2023-08-11T10:51:30.501Z,1.60
2023-08-11T10:54:00.928Z,1.98
2023-08-11T10:56:33.496Z,2.90
2023-08-11T10:59:09.632Z,2.17
2023-08-11T11:01:38.424Z,1.63
2023-08-11T11:04:07.937Z,2.83
2023-08-11T11:06:36.439Z,4.80
2023-08-11T11:09:04.423Z,3.72
2023-08-11T11:11:32.057Z,2.90
2023-08-11T11:13:59.438Z,4.32
2023-08-11T11:16:27.433Z,2.58
2023-08-11T11:18:54.677Z,3.17
2023-08-11T11:21:21.744Z,2.75
2023-08-11T11:23:50.419Z,2.75
2023-08-11T11:26:23.818Z,2.15
2023-08-11T11:28:51.627Z,3.50
2023-08-11T11:31:19.728Z,1.73
2023-08-11T11:33:47.342Z,1.50
2023-08-11T11:36:14.543Z,3.00
2023-08-11T11:38:42.505Z,3.50
2023-08-11T11:41:19.828Z,1.85
2023-08-11T11:43:48.749Z,3.33
2023-08-11T11:46:17.456Z,3.65
2023-08-11T11:48:49.864Z,3.25
2023-08-11T11:51:19.138Z,2.15
2023-08-11T11:53:46.675Z,2.35
2023-08-11T11:56:17.447Z,2.80
2023-08-11T11:58:47.213Z,4.25
2023-08-11T12:01:16.029Z,1.92
2023-08-11T12:03:45.456Z,2.85
2023-08-11T12:06:13.234Z,2.83
2023-08-11T12:08:43.913Z,2.47
2023-08-11T12:11:12.895Z,2.67
2023-08-11T12:13:41.338Z,1.55
2023-08-11T12:16:09.933Z,1.40
2023-08-11T12:18:39.054Z,1.40
2023-08-11T12:21:07.458Z,2.83
2023-08-11T12:23:34.688Z,3.92
2023-08-11T12:26:01.950Z,1.88
2023-08-11T12:28:29.325Z,1.40
2023-08-11T12:30:57.718Z,4.65
2023-08-11T12:33:24.684Z,2.78
2023-08-11T12:35:52.072Z,1.70
2023-08-11T12:38:21.212Z,2.20
2023-08-11T12:40:49.454Z,1.65
2023-08-11T12:43:17.307Z,2.15
2023-08-11T12:45:48.149Z,1.38
2023-08-11T12:48:16.061Z,1.77
2023-08-11T12:50:43.341Z,4.32
2023-08-11T12:53:10.378Z,3.65
2023-08-11T12:55:40.606Z,2.65
2023-08-11T12:58:09.263Z,2.97
2023-08-11T13:00:37.586Z,1.10
2023-08-11T13:03:05.127Z,2.08
2023-08-11T13:05:32.733Z,2.20
2023-08-11T13:07:59.637Z,2.40
2023-08-11T13:10:26.803Z,3.03
2023-08-11T13:12:54.174Z,2.38
2023-08-11T13:15:21.586Z,2.05
2023-08-11T13:17:48.612Z,1.50
2023-08-11T13:20:16.442Z,1.55
2023-08-11T13:22:43.717Z,2.15
2023-08-11T13:25:11.163Z,1.23
2023-08-11T13:27:38.821Z,4.53
2023-08-11T13:30:10.079Z,2.05
2023-08-11T13:32:37.040Z,2.30
2023-08-11T13:35:06.356Z,4.72
2023-08-11T13:37:33.303Z,5.07
2023-08-11T13:40:01.519Z,2.35
2023-08-11T13:42:28.620Z,2.08
2023-08-11T13:44:55.538Z,1.60
2023-08-11T13:47:22.411Z,1.60
2023-08-11T13:49:49.215Z,2.47
2023-08-11T13:52:16.038Z,3.92
2023-08-11T13:55:03.174Z,2.20
2023-08-11T13:57:30.180Z,1.10
2023-08-11T13:59:59.086Z,1.88
2023-08-11T14:02:27.837Z,2.30
2023-08-11T14:04:54.856Z,1.70
2023-08-11T14:07:30.554Z,1.88
2023-08-11T14:09:59.748Z,1.73
2023-08-11T14:12:26.548Z,1.42
2023-08-11T14:14:53.396Z,1.30
2023-08-11T14:17:20.199Z,2.35
2023-08-11T14:19:47.055Z,4.03
2023-08-11T14:22:13.860Z,3.22
2023-08-11T14:24:40.812Z,2.03
2023-08-11T14:27:07.623Z,3.30
2023-08-11T14:29:34.465Z,1.40
2023-08-11T14:32:14.269Z,2.42
2023-08-11T14:34:48.146Z,2.60
2023-08-11T14:37:17.379Z,1.50
2023-08-11T14:39:45.876Z,1.58
2023-08-11T14:42:14.979Z,2.13
2023-08-11T14:44:42.229Z,2.42
2023-08-11T14:47:14.098Z,5.53
2023-08-11T14:49:42.100Z,2.08
2023-08-11T14:52:09.403Z,2.53
2023-08-11T14:54:36.912Z,1.50
2023-08-11T14:57:03.950Z,1.85
2023-08-11T14:59:30.935Z,1.67
2023-08-11T15:01:57.739Z,1.70
2023-08-11T15:04:24.590Z,1.80
2023-08-11T15:06:51.400Z,2.58
2023-08-11T15:09:18.337Z,2.20
2023-08-11T15:11:45.265Z,3.38
2023-08-11T15:14:12.103Z,1.52
2023-08-11T15:16:38.966Z,2.15
2023-08-11T15:19:05.799Z,2.90
2023-08-11T15:21:32.591Z,1.60
2023-08-11T15:23:59.424Z,1.67
2023-08-11T15:26:26.590Z,3.58
2023-08-11T15:28:53.470Z,1.98
2023-08-11T15:31:20.359Z,2.80
2023-08-11T15:33:47.346Z,1.50
2023-08-11T15:36:14.154Z,2.78
2023-08-11T15:38:40.986Z,3.53
2023-08-11T15:41:07.854Z,2.45
2023-08-11T15:43:34.713Z,1.50
2023-08-11T15:46:01.524Z,3.67
2023-08-11T15:48:28.949Z,1.20
2023-08-11T15:50:56.664Z,1.55
2023-08-11T15:53:23.451Z,1.45
2023-08-11T15:55:50.325Z,1.73
2023-08-11T15:58:17.081Z,2.20
2023-08-11T16:00:43.981Z,1.48
2023-08-11T16:03:10.897Z,2.70
2023-08-11T16:05:37.900Z,1.60
2023-08-11T16:08:05.044Z,1.75
2023-08-11T16:10:36.270Z,2.47
2023-08-11T16:13:03.479Z,2.70
2023-08-11T16:15:30.896Z,3.20
2023-08-11T16:17:57.862Z,1.52
2023-08-11T16:20:24.699Z,2.97
2023-08-11T16:22:53.218Z,2.88
2023-08-11T16:25:20.381Z,1.92
2023-08-11T16:27:47.243Z,2.90
2023-08-11T16:30:14.227Z,1.70
2023-08-11T16:32:41.072Z,1.55
2023-08-11T16:35:09.097Z,2.30
2023-08-11T16:37:36.065Z,1.80
2023-08-11T16:40:03.978Z,2.08
2023-08-11T16:42:30.828Z,1.58
2023-08-11T16:44:57.666Z,1.65
2023-08-11T16:47:24.485Z,2.00
2023-08-11T16:49:51.759Z,2.03
2023-08-11T16:52:18.560Z,2.80
2023-08-11T16:54:45.329Z,2.47
2023-08-11T16:57:13.097Z,1.40
2023-08-11T16:59:40.393Z,1.73
2023-08-11T17:02:07.263Z,1.45
2023-08-11T17:04:34.124Z,2.85
2023-08-11T17:07:00.984Z,1.88
2023-08-11T17:09:27.799Z,1.60
2023-08-11T17:11:54.678Z,1.45
2023-08-11T17:14:21.527Z,1.27
2023-08-11T17:16:48.382Z,1.45
2023-08-11T17:19:15.270Z,1.20
2023-08-11T17:21:43.325Z,2.33
2023-08-11T17:24:10.261Z,1.50
2023-08-11T17:26:38.646Z,2.38
2023-08-11T17:29:05.534Z,5.03
2023-08-11T17:31:32.567Z,2.47
2023-08-11T17:33:59.538Z,4.32
2023-08-11T17:36:30.051Z,2.00
2023-08-11T17:39:00.346Z,1.52
2023-08-11T17:41:27.898Z,2.15
2023-08-11T17:43:55.888Z,1.50
2023-08-11T17:46:22.908Z,2.58
2023-08-11T17:48:53.620Z,4.72
2023-08-11T17:51:21.870Z,2.65
2023-08-11T17:53:59.546Z,2.58
2023-08-11T17:56:36.968Z,3.47
2023-08-11T17:59:04.079Z,2.10
2023-08-11T18:01:31.850Z,3.90
2023-08-11T18:04:03.511Z,3.97
2023-08-11T18:06:34.561Z,3.78
2023-08-11T18:09:01.687Z,4.18
2023-08-11T18:11:29.485Z,4.18
2023-08-11T18:13:56.858Z,6.85
2023-08-11T18:16:24.502Z,4.45
2023-08-11T18:18:51.375Z,3.90
2023-08-11T18:21:21.259Z,2.72
2023-08-11T18:23:48.516Z,3.13
2023-08-11T18:26:17.609Z,3.08
2023-08-11T18:28:44.704Z,4.72
2023-08-11T18:31:11.729Z,3.80
2023-08-11T18:33:38.733Z,4.45
2023-08-11T18:36:05.737Z,2.53
2023-08-11T18:38:32.560Z,5.82
2023-08-11T18:40:59.421Z,3.42
2023-08-11T18:43:26.435Z,4.40
2023-08-11T18:45:53.307Z,2.28
2023-08-11T18:48:20.130Z,2.70
2023-08-11T18:50:47.116Z,3.33
2023-08-11T18:53:14.206Z,1.80
2023-08-11T18:55:41.096Z,2.65
2023-08-11T18:58:08.058Z,2.50
2023-08-11T19:00:34.980Z,2.22
2023-08-11T19:03:01.886Z,2.17
2023-08-11T19:05:29.258Z,2.60
2023-08-11T19:07:56.078Z,3.45
2023-08-11T19:10:29.122Z,2.50
2023-08-11T19:12:56.025Z,5.70
2023-08-11T19:15:22.900Z,4.53
2023-08-11T19:17:49.753Z,3.95
2023-08-11T19:20:16.904Z,3.70
2023-08-11T19:22:43.780Z,4.32
2023-08-11T19:25:12.090Z,4.72
2023-08-11T19:27:39.410Z,5.35
2023-08-11T19:30:07.797Z,5.88
2023-08-11T19:32:35.987Z,3.38
2023-08-11T19:35:03.625Z,4.45
2023-08-11T19:37:30.515Z,3.60
2023-08-11T19:39:57.504Z,3.38
2023-08-11T19:42:24.452Z,3.53
2023-08-11T19:44:51.380Z,3.83
2023-08-11T19:47:18.164Z,2.85
2023-08-11T19:49:44.989Z,3.63
2023-08-11T19:52:12.506Z,4.68
2023-08-11T19:54:39.614Z,3.25
2023-08-11T19:57:06.533Z,3.03
2023-08-11T19:59:33.396Z,3.95
2023-08-11T20:02:00.318Z,4.03
2023-08-11T20:04:27.173Z,4.97
2023-08-11T20:06:53.975Z,3.75
2023-08-11T20:09:23.372Z,3.88
2023-08-11T20:11:51.097Z,4.15
2023-08-11T20:14:19.884Z,4.18
2023-08-11T20:16:47.491Z,6.78
2023-08-11T20:19:14.363Z,7.75
2023-08-11T20:21:43.310Z,3.53
2023-08-11T20:24:10.185Z,7.45
2023-08-11T20:26:37.185Z,3.42
2023-08-11T20:29:04.435Z,3.72
2023-08-11T20:31:34.084Z,4.63
2023-08-11T20:34:01.537Z,4.90
2023-08-11T20:36:28.558Z,6.60
2023-08-11T20:38:55.364Z,6.30
2023-08-11T20:41:22.250Z,7.20
2023-08-11T20:43:49.727Z,6.88
2023-08-11T20:46:16.919Z,4.60
2023-08-11T20:48:43.946Z,6.35
2023-08-11T20:51:12.950Z,3.90
2023-08-11T20:53:40.203Z,3.45
2023-08-11T20:56:09.327Z,3.50
2023-08-11T20:58:36.673Z,3.42
2023-08-11T21:01:03.666Z,6.05
2023-08-11T21:03:30.753Z,4.13
2023-08-11T21:05:57.674Z,5.72
2023-08-11T21:08:24.538Z,5.90
2023-08-11T21:10:51.540Z,3.92
2023-08-11T21:13:18.354Z,4.70
2023-08-11T21:15:45.175Z,4.88
2023-08-11T21:18:12.288Z,4.80
2023-08-11T21:20:39.614Z,6.35
2023-08-11T21:23:07.031Z,7.07
2023-08-11T21:25:34.986Z,4.53
2023-08-11T21:28:02.096Z,3.63
2023-08-11T21:30:29.021Z,5.20
2023-08-11T21:32:55.928Z,4.60
2023-08-11T21:35:22.934Z,4.60
2023-08-11T21:37:50.078Z,4.97
2023-08-11T21:40:17.209Z,3.42
2023-08-11T21:42:44.912Z,4.80
2023-08-11T21:45:12.026Z,8.02
2023-08-11T21:47:39.202Z,3.45
2023-08-11T21:50:07.237Z,3.47
2023-08-11T21:52:34.474Z,3.50
2023-08-11T21:55:01.320Z,3.67
2023-08-11T21:57:28.241Z,3.95
2023-08-11T21:59:55.106Z,4.93
2023-08-11T22:02:21.977Z,4.93
2023-08-11T22:04:48.921Z,4.35
2023-08-11T22:07:16.034Z,6.50
2023-08-11T22:09:43.917Z,4.50
2023-08-11T22:12:12.163Z,5.03
2023-08-11T22:14:39.594Z,5.47
2023-08-11T22:17:06.460Z,4.35
2023-08-11T22:19:36.455Z,4.55
2023-08-11T22:22:08.550Z,6.55
2023-08-11T22:24:41.333Z,7.10
2023-08-11T22:27:10.490Z,5.80
2023-08-11T22:29:38.056Z,4.30
2023-08-11T22:32:05.090Z,5.50
2023-08-11T22:34:31.946Z,3.97
2023-08-11T22:36:58.760Z,4.40
2023-08-11T22:39:25.598Z,6.53
2023-08-11T22:41:52.358Z,6.35
2023-08-11T22:44:19.169Z,4.68
2023-08-11T22:46:46.090Z,8.73
2023-08-11T22:49:12.981Z,4.10
2023-08-11T22:51:39.859Z,6.30
2023-08-11T22:54:06.689Z,4.30
2023-08-11T22:56:33.608Z,5.13
2023-08-11T22:59:00.489Z,4.13
2023-08-11T23:01:27.427Z,4.63
2023-08-11T23:03:54.305Z,4.80
2023-08-11T23:06:21.295Z,3.50
2023-08-11T23:08:48.019Z,4.53
2023-08-11T23:11:14.820Z,5.88
2023-08-11T23:13:41.629Z,4.18
2023-08-11T23:16:08.572Z,9.07
2023-08-11T23:18:35.372Z,5.90
2023-08-11T23:21:02.164Z,4.47
2023-08-11T23:23:28.971Z,5.70
2023-08-11T23:25:55.878Z,5.05
2023-08-11T23:28:22.783Z,4.38
2023-08-11T23:30:49.617Z,3.95
2023-08-11T23:33:16.748Z,5.18
2023-08-11T23:35:43.582Z,5.10
2023-08-11T23:38:11.906Z,3.95
2023-08-11T23:40:39.022Z,6.03
2023-08-11T23:43:06.133Z,6.10
2023-08-11T23:45:33.062Z,4.47
2023-08-11T23:48:00.127Z,5.75
2023-08-11T23:50:27.755Z,3.70
2023-08-11T23:52:54.575Z,4.50
2023-08-11T23:55:21.595Z,4.15
2023-08-11T23:57:48.513Z,5.47
